EFSI

Seinäjoki Airport

Seinäjoki / Ilmajoki, Finland
METAR EFSI 161220Z AUTO 13006KT 9999 OVC030 M06/M07 Q1030
Observed Flight Rules
Dec-16 @ 12:20 UTC (28 minutes ago) Marginal Visual Flight Rules
Wind Visibility Clouds
130° at 6 knots 10,000+ meters
  • Overcast at 3,000' AGL
Temperatures Readings
Current -6°C / 21°F
Dewpoint -7°C / 19°F
Humidity 93%
Altimeter 30.41" Hg
Pressure 1030 hPa
Elevation 91
METAR EFSI 161220Z AUTO 13006KT 9999 OVC030 M06/M07 Q1030
Observed Flight Rules
Dec-16 @ 12:20 UTC
(28 minutes ago)
MVFR
Wind Visibility
130° at 6 knots 10,000+ meters
Clouds
  • Overcast at 3,000' AGL
Temperature Dewpoint
-6°C / 21°F -7°C / 19°F
Humidity Altimeter Pressure
93% 30.41" Hg 1030 hPa